createdAt,value
2019-06-07T00:01:55.320Z,14.20
2019-06-07T00:04:26.060Z,15.13
2019-06-07T00:06:56.183Z,12.57
2019-06-07T00:09:26.476Z,9.87
2019-06-07T00:11:56.331Z,13.40
2019-06-07T00:14:27.393Z,11.73
2019-06-07T00:16:57.483Z,14.37
2019-06-07T00:19:27.601Z,12.33
2019-06-07T00:22:17.950Z,10.97
2019-06-07T00:24:29.648Z,11.17
2019-06-07T00:26:59.871Z,12.93
2019-06-07T00:29:29.697Z,10.83
2019-06-07T00:31:59.542Z,11.03
2019-06-07T00:34:29.360Z,12.63
2019-06-07T00:36:59.140Z,16.63
2019-06-07T00:39:29.261Z,11.90
2019-06-07T00:41:59.817Z,11.33
2019-06-07T00:44:29.962Z,13.27
2019-06-07T00:47:00.150Z,12.10
2019-06-07T00:49:40.520Z,15.33
2019-06-07T00:52:01.885Z,10.77
2019-06-07T00:54:32.029Z,12.67
2019-06-07T00:57:01.866Z,14.40
2019-06-07T00:59:31.832Z,11.47
2019-06-07T01:02:01.727Z,12.87
2019-06-07T01:04:31.799Z,13.77
2019-06-07T01:07:01.605Z,13.70
2019-06-07T01:09:31.434Z,13.97
2019-06-07T01:12:01.510Z,15.77
2019-06-07T01:14:31.327Z,10.13
2019-06-07T01:17:26.559Z,10.10
2019-06-07T01:19:42.432Z,12.43
2019-06-07T01:22:15.973Z,14.38
2019-06-07T01:24:44.562Z,14.05
2019-06-07T01:27:16.692Z,11.10
2019-06-07T01:29:46.404Z,13.53
2019-06-07T01:32:19.295Z,11.90
2019-06-07T01:34:49.403Z,10.53
2019-06-07T01:37:22.602Z,16.23
2019-06-07T01:39:51.273Z,11.57
2019-06-07T01:42:22.660Z,12.43
2019-06-07T01:44:53.876Z,11.57
2019-06-07T01:47:25.557Z,13.70
2019-06-07T01:49:55.357Z,16.53
2019-06-07T01:52:26.687Z,11.73
2019-06-07T01:54:58.819Z,12.40
2019-06-07T01:57:44.831Z,14.57
2019-06-07T02:00:00.297Z,13.43
2019-06-07T02:02:31.825Z,21.17
2019-06-07T02:05:01.757Z,12.07
2019-06-07T02:07:33.222Z,12.30
2019-06-07T02:10:03.804Z,16.77
2019-06-07T02:12:42.871Z,13.80
2019-06-07T02:15:08.079Z,13.20
2019-06-07T02:17:38.942Z,12.53
2019-06-07T02:20:09.036Z,14.40
2019-06-07T02:22:38.865Z,14.37
2019-06-07T02:27:40.833Z,16.73
2019-06-07T02:30:37.254Z,13.37
2019-06-07T02:32:42.842Z,16.35
2019-06-07T02:35:13.210Z,17.07
2019-06-07T02:37:43.734Z,15.10
2019-06-07T02:40:14.518Z,15.07
2019-06-07T02:42:44.403Z,18.17
2019-06-07T02:45:15.718Z,11.77
2019-06-07T02:47:47.185Z,16.27
2019-06-07T02:50:17.179Z,18.10
2019-06-07T02:52:49.039Z,11.27
2019-06-07T02:55:20.234Z,15.10
2019-06-07T02:57:50.202Z,15.37
2019-06-07T03:00:58.793Z,17.57
2019-06-07T03:03:13.320Z,11.97
2019-06-07T03:05:44.578Z,12.25
2019-06-07T03:08:15.441Z,15.20
2019-06-07T03:10:46.385Z,14.17
2019-06-07T03:13:19.472Z,13.88
2019-06-07T03:15:51.013Z,13.33
2019-06-07T03:18:41.614Z,10.03
2019-06-07T03:21:15.599Z,14.20
2019-06-07T03:23:46.167Z,12.00
2019-06-07T03:26:16.675Z,12.60
2019-06-07T03:28:46.644Z,14.25
2019-06-07T03:31:16.417Z,10.90
2019-06-07T03:33:47.933Z,11.20
2019-06-07T03:36:23.796Z,14.17
2019-06-07T03:38:50.743Z,15.20
2019-06-07T03:41:20.627Z,23.63
2019-06-07T03:43:50.759Z,13.87
2019-06-07T03:46:20.938Z,14.30
2019-06-07T03:48:50.780Z,16.17
2019-06-07T03:51:25.116Z,20.45
2019-06-07T03:53:52.093Z,14.77
2019-06-07T03:56:22.113Z,15.27
2019-06-07T03:58:52.408Z,15.67
2019-06-07T04:01:24.057Z,20.23
2019-06-07T04:03:54.097Z,17.90
2019-06-07T04:06:23.893Z,18.17
2019-06-07T04:08:53.810Z,16.67
2019-06-07T04:11:23.695Z,20.20
2019-06-07T04:13:53.746Z,15.03
2019-06-07T04:16:23.696Z,15.33
2019-06-07T04:18:54.510Z,16.70
2019-06-07T04:21:24.560Z,16.03
2019-06-07T04:23:54.759Z,21.83
2019-06-07T04:26:24.966Z,15.30
2019-06-07T04:29:31.843Z,16.00
2019-06-07T04:31:26.727Z,14.07
2019-06-07T04:33:56.896Z,15.93
2019-06-07T04:36:42.812Z,18.33
2019-06-07T04:38:59.717Z,19.53
2019-06-07T04:41:33.518Z,16.47
2019-06-07T04:44:03.541Z,15.93
2019-06-07T04:46:35.209Z,18.43
2019-06-07T04:49:05.874Z,19.73
2019-06-07T04:51:37.267Z,18.73
2019-06-07T04:54:07.719Z,24.23
2019-06-07T04:56:42.105Z,19.63
2019-06-07T04:59:10.098Z,25.27
2019-06-07T05:01:42.584Z,21.43
2019-06-07T05:04:12.864Z,15.53
2019-06-07T05:06:42.858Z,21.77
2019-06-07T05:09:13.402Z,15.40
2019-06-07T05:11:44.825Z,18.73
2019-06-07T05:14:14.651Z,23.20
2019-06-07T05:16:45.172Z,17.42
2019-06-07T05:19:16.039Z,16.57
2019-06-07T05:22:02.684Z,18.10
2019-06-07T05:24:17.597Z,19.10
2019-06-07T05:26:47.449Z,16.13
2019-06-07T05:29:17.340Z,13.37
2019-06-07T05:31:47.922Z,11.80
2019-06-07T05:34:18.805Z,12.20
2019-06-07T05:37:10.503Z,13.13
2019-06-07T05:39:22.076Z,15.13
2019-06-07T05:41:51.906Z,15.10
2019-06-07T05:44:22.084Z,14.10
2019-06-07T05:46:51.938Z,13.15
2019-06-07T05:49:21.727Z,10.70
2019-06-07T05:51:51.570Z,11.60
2019-06-07T05:54:21.444Z,11.23
2019-06-07T05:56:51.257Z,7.43
2019-06-07T05:59:21.299Z,10.37
2019-06-07T06:02:01.929Z,10.23
2019-06-07T06:04:22.788Z,8.67
2019-06-07T06:06:53.708Z,7.63
2019-06-07T06:09:23.738Z,7.70
2019-06-07T06:12:01.836Z,4.97
2019-06-07T06:14:25.189Z,6.60
2019-06-07T06:16:55.781Z,4.37
2019-06-07T06:19:25.647Z,5.62
2019-06-07T06:21:55.644Z,6.73
2019-06-07T06:24:25.560Z,5.00
2019-06-07T06:27:14.831Z,4.53
2019-06-07T06:29:31.466Z,6.47
2019-06-07T06:32:40.470Z,4.73
2019-06-07T06:34:33.072Z,6.80
2019-06-07T06:37:03.100Z,4.13
2019-06-07T06:39:33.246Z,8.43
2019-06-07T06:42:03.916Z,5.93
2019-06-07T06:44:34.149Z,4.13
2019-06-07T06:47:03.941Z,2.80
2019-06-07T06:49:34.008Z,3.07
2019-06-07T06:52:03.808Z,0.80
2019-06-07T06:54:41.059Z,2.70
2019-06-07T06:57:19.116Z,3.00
2019-06-07T06:59:39.564Z,1.67
2019-06-07T07:02:09.120Z,4.10
2019-06-07T07:04:41.806Z,1.80
2019-06-07T07:07:11.491Z,3.93
2019-06-07T07:09:43.760Z,1.27
2019-06-07T07:12:15.124Z,4.03
2019-06-07T07:14:47.339Z,1.93
2019-06-07T07:17:16.761Z,1.47
2019-06-07T07:19:49.877Z,5.03
2019-06-07T07:22:18.726Z,3.90
2019-06-07T07:24:51.794Z,8.67
2019-06-07T07:27:20.283Z,5.07
2019-06-07T07:30:00.044Z,7.97
2019-06-07T07:32:22.117Z,7.40
2019-06-07T07:34:59.654Z,4.63
2019-06-07T07:37:23.984Z,4.58
2019-06-07T07:40:01.212Z,3.67
2019-06-07T07:42:25.516Z,2.77
2019-06-07T07:44:56.836Z,3.50
2019-06-07T07:47:27.302Z,4.40
2019-06-07T07:49:59.054Z,4.70
2019-06-07T07:52:28.717Z,6.60
2019-06-07T07:54:58.847Z,6.83
2019-06-07T07:57:29.167Z,5.97
2019-06-07T08:00:25.608Z,6.17
2019-06-07T08:02:30.610Z,2.13
2019-06-07T08:05:41.947Z,2.27
2019-06-07T08:07:32.579Z,2.43
2019-06-07T08:10:04.146Z,1.83
2019-06-07T08:12:55.715Z,4.17
2019-06-07T08:15:06.886Z,4.53
2019-06-07T08:17:36.936Z,1.87
2019-06-07T08:20:06.812Z,2.03
2019-06-07T08:22:36.601Z,7.20
2019-06-07T08:25:07.082Z,1.10
2019-06-07T08:27:37.123Z,4.80
2019-06-07T08:30:35.019Z,3.87
2019-06-07T08:32:39.265Z,4.87
2019-06-07T08:35:09.923Z,7.50
2019-06-07T08:38:14.970Z,2.00
2019-06-07T08:40:12.168Z,3.33
2019-06-07T08:42:59.904Z,3.87
2019-06-07T08:45:14.529Z,2.77
2019-06-07T08:47:44.940Z,5.30
2019-06-07T08:50:15.679Z,3.30
2019-06-07T08:52:45.866Z,7.83
2019-06-07T08:55:15.929Z,5.17
2019-06-07T08:57:46.292Z,4.07
2019-06-07T09:00:43.048Z,1.90
2019-06-07T09:02:47.952Z,8.00
2019-06-07T09:05:17.876Z,4.57
2019-06-07T09:07:48.364Z,2.60
2019-06-07T09:10:18.572Z,5.47
2019-06-07T09:12:48.450Z,5.37
2019-06-07T09:15:23.275Z,4.77
2019-06-07T09:20:36.463Z,3.77
2019-06-07T09:22:59.032Z,5.10
2019-06-07T09:25:26.788Z,4.60
2019-06-07T09:28:00.565Z,3.17
2019-06-07T09:30:46.823Z,2.27
2019-06-07T09:33:17.195Z,2.53
2019-06-07T09:35:47.330Z,4.23
2019-06-07T09:38:25.460Z,3.13
2019-06-07T09:40:48.960Z,4.50
2019-06-07T09:44:00.078Z,3.90
2019-06-07T09:45:51.375Z,5.15
2019-06-07T09:49:08.545Z,4.65
2019-06-07T09:50:52.938Z,4.30
2019-06-07T09:53:23.542Z,2.45
2019-06-07T09:55:53.538Z,5.77
2019-06-07T09:58:51.050Z,4.05
2019-06-07T10:00:55.083Z,6.30
2019-06-07T10:03:24.919Z,5.28
2019-06-07T10:05:54.854Z,3.53
2019-06-07T10:09:55.831Z,3.08
2019-06-07T10:10:56.363Z,4.67
2019-06-07T10:13:26.113Z,4.00
2019-06-07T10:15:56.206Z,3.83
2019-06-07T10:18:26.163Z,4.25
2019-06-07T10:20:56.098Z,3.50
2019-06-07T10:23:25.940Z,3.20
2019-06-07T10:25:57.065Z,3.65
2019-06-07T10:28:26.881Z,2.40
2019-06-07T10:30:56.713Z,3.40
2019-06-07T10:33:26.905Z,2.37
2019-06-07T10:35:57.160Z,6.00
2019-06-07T10:38:27.294Z,9.35
2019-06-07T10:40:57.084Z,5.77
2019-06-07T10:43:27.324Z,3.07
2019-06-07T10:45:57.352Z,2.17
2019-06-07T10:48:27.519Z,5.20
2019-06-07T10:50:57.442Z,3.30
2019-06-07T10:53:27.752Z,4.50
2019-06-07T10:55:57.938Z,3.17
2019-06-07T10:58:27.818Z,3.90
2019-06-07T11:00:57.918Z,1.67
2019-06-07T11:03:28.124Z,2.57
2019-06-07T11:05:57.885Z,0.90
2019-06-07T11:08:28.128Z,1.60
2019-06-07T11:10:58.022Z,2.25
2019-06-07T11:13:27.865Z,3.47
2019-06-07T11:15:58.214Z,2.47
2019-06-07T11:18:28.047Z,4.77
2019-06-07T11:20:57.784Z,2.60
2019-06-07T11:23:27.562Z,2.37
2019-06-07T11:25:58.613Z,2.00
2019-06-07T11:28:28.633Z,2.55
2019-06-07T11:30:58.425Z,2.20
2019-06-07T11:33:28.227Z,1.98
2019-06-07T11:35:58.410Z,2.63
2019-06-07T11:38:28.237Z,4.90
2019-06-07T11:40:58.357Z,2.30
2019-06-07T11:43:28.356Z,5.40
2019-06-07T11:45:58.495Z,2.85
2019-06-07T11:48:28.268Z,1.80
2019-06-07T11:50:58.396Z,2.10
2019-06-07T11:53:28.435Z,1.95
2019-06-07T11:55:58.206Z,2.83
2019-06-07T11:58:28.154Z,6.93
2019-06-07T12:00:58.319Z,2.43
2019-06-07T12:03:28.448Z,2.93
2019-06-07T12:05:59.468Z,3.03
2019-06-07T12:08:29.748Z,3.77
2019-06-07T12:10:59.822Z,3.90
2019-06-07T12:13:29.885Z,2.60
2019-06-07T12:15:59.719Z,3.37
2019-06-07T12:18:29.838Z,4.30
2019-06-07T12:20:59.905Z,2.77
2019-06-07T12:23:29.845Z,4.43
2019-06-07T12:25:59.730Z,6.50
2019-06-07T12:28:30.282Z,4.85
2019-06-07T12:31:00.067Z,5.80
2019-06-07T12:33:30.399Z,2.67
2019-06-07T12:36:00.654Z,3.27
2019-06-07T12:38:30.511Z,2.90
2019-06-07T12:41:00.270Z,3.27
2019-06-07T12:43:30.495Z,7.40
2019-06-07T12:46:00.618Z,4.83
2019-06-07T12:48:30.774Z,6.33
2019-06-07T12:51:00.569Z,4.77
2019-06-07T12:53:31.352Z,3.83
2019-06-07T12:56:01.782Z,3.07
2019-06-07T12:58:36.184Z,2.83
2019-06-07T13:01:04.751Z,3.23
2019-06-07T13:03:34.605Z,3.07
2019-06-07T13:06:04.696Z,6.27
2019-06-07T13:08:34.898Z,3.37
2019-06-07T13:11:14.876Z,5.07
2019-06-07T13:13:36.406Z,5.87
2019-06-07T13:16:06.390Z,4.73
2019-06-07T13:18:36.641Z,4.00
2019-06-07T13:21:07.398Z,4.37
2019-06-07T13:23:37.508Z,5.87
2019-06-07T13:26:07.537Z,4.20
2019-06-07T13:28:37.609Z,4.87
2019-06-07T13:31:07.660Z,4.97
2019-06-07T13:33:38.810Z,8.20
2019-06-07T13:36:10.137Z,5.50
2019-06-07T13:38:39.932Z,6.07
2019-06-07T13:41:09.735Z,5.57
2019-06-07T13:43:40.422Z,7.37
2019-06-07T13:46:12.994Z,8.83
2019-06-07T13:48:43.749Z,7.70
2019-06-07T13:51:14.315Z,8.30
2019-06-07T13:53:44.134Z,7.43
2019-06-07T13:56:14.045Z,5.70
2019-06-07T13:58:44.122Z,9.30
2019-06-07T14:01:13.982Z,7.37
2019-06-07T14:03:49.721Z,7.43
2019-06-07T14:06:21.260Z,7.80
2019-06-07T14:08:53.593Z,7.13
2019-06-07T14:11:25.637Z,8.43
2019-06-07T14:13:56.602Z,8.97
2019-06-07T14:16:28.387Z,8.30
2019-06-07T14:19:00.187Z,9.13
2019-06-07T14:21:31.013Z,8.90
2019-06-07T14:24:02.722Z,7.80
2019-06-07T14:26:38.284Z,8.90
2019-06-07T14:29:08.876Z,9.27
2019-06-07T14:31:41.203Z,8.47
2019-06-07T14:34:11.978Z,11.50
2019-06-07T14:36:42.666Z,9.83
2019-06-07T14:39:12.725Z,10.40
2019-06-07T14:41:43.259Z,11.63
2019-06-07T14:44:14.277Z,10.47
2019-06-07T14:46:44.418Z,11.03
2019-06-07T14:49:15.776Z,10.43
2019-06-07T14:51:45.879Z,13.57
2019-06-07T14:54:16.674Z,13.50
2019-06-07T14:56:47.304Z,10.90
2019-06-07T14:59:18.508Z,9.93
2019-06-07T15:01:49.274Z,9.10
2019-06-07T15:04:19.804Z,10.30
2019-06-07T15:06:49.856Z,9.70
2019-06-07T15:09:21.993Z,12.23
2019-06-07T15:11:52.727Z,8.60
2019-06-07T15:14:24.078Z,9.50
2019-06-07T15:16:55.135Z,10.47
2019-06-07T15:19:26.655Z,10.03
2019-06-07T15:21:57.399Z,10.67
2019-06-07T15:24:28.106Z,12.33
2019-06-07T15:26:58.477Z,12.50
2019-06-07T15:29:29.791Z,12.30
2019-06-07T15:32:00.463Z,11.97
2019-06-07T15:34:32.277Z,12.45
2019-06-07T15:37:02.675Z,13.47
2019-06-07T15:39:34.474Z,12.58
2019-06-07T15:42:05.314Z,11.87
2019-06-07T15:44:37.428Z,14.93
2019-06-07T15:47:08.726Z,10.82
2019-06-07T15:49:40.351Z,10.70
2019-06-07T15:52:11.170Z,11.43
2019-06-07T15:54:41.986Z,12.47
2019-06-07T15:57:12.917Z,12.55
2019-06-07T15:59:43.313Z,12.53
2019-06-07T16:02:14.170Z,11.87
2019-06-07T16:04:44.375Z,12.80
2019-06-07T16:07:15.207Z,16.20
2019-06-07T16:09:46.007Z,11.23
2019-06-07T16:12:16.978Z,10.77
2019-06-07T16:14:47.606Z,13.83
2019-06-07T16:17:18.137Z,16.03
2019-06-07T16:19:48.782Z,11.70
2019-06-07T16:22:20.219Z,11.83
2019-06-07T16:24:50.410Z,12.83
2019-06-07T16:27:21.175Z,11.93
2019-06-07T16:29:52.148Z,10.83
2019-06-07T16:32:22.775Z,12.57
2019-06-07T16:34:53.183Z,11.30
2019-06-07T16:37:23.300Z,19.33
2019-06-07T16:39:54.112Z,13.53
2019-06-07T16:42:24.508Z,10.60
2019-06-07T16:44:55.321Z,12.27
2019-06-07T16:47:26.360Z,14.20
2019-06-07T16:49:57.161Z,12.93
2019-06-07T16:52:27.715Z,12.10
2019-06-07T16:54:58.523Z,13.70
2019-06-07T16:57:28.780Z,10.70
2019-06-07T16:59:59.291Z,15.23
2019-06-07T17:02:30.500Z,10.47
2019-06-07T17:05:00.996Z,12.00
2019-06-07T17:07:32.113Z,10.73
2019-06-07T17:10:03.936Z,10.65
2019-06-07T17:12:34.358Z,12.88
2019-06-07T17:15:05.236Z,12.30
2019-06-07T17:17:36.046Z,11.33
2019-06-07T17:20:09.097Z,13.33
2019-06-07T17:22:41.588Z,11.03
2019-06-07T17:25:12.146Z,14.47
2019-06-07T17:27:43.777Z,12.63
2019-06-07T17:30:14.293Z,9.93
2019-06-07T17:32:55.916Z,10.43
2019-06-07T17:35:17.832Z,9.80
2019-06-07T17:37:49.630Z,16.40
2019-06-07T17:40:20.658Z,12.90
2019-06-07T17:42:51.137Z,10.27
2019-06-07T17:45:21.637Z,10.10
2019-06-07T17:47:52.281Z,9.40
2019-06-07T17:50:23.803Z,9.33
2019-06-07T17:52:53.955Z,9.30
2019-06-07T17:55:24.176Z,8.63
2019-06-07T17:57:55.365Z,8.70
2019-06-07T18:00:33.525Z,9.80
2019-06-07T18:03:04.205Z,9.50
2019-06-07T18:05:34.321Z,9.13
2019-06-07T18:08:05.091Z,9.40
2019-06-07T18:10:37.999Z,9.28
2019-06-07T18:13:08.800Z,12.53
2019-06-07T18:15:40.863Z,8.60
2019-06-07T18:18:11.915Z,8.50
2019-06-07T18:20:42.512Z,8.57
2019-06-07T18:23:13.029Z,8.50
2019-06-07T18:25:43.775Z,10.63
2019-06-07T18:28:14.016Z,8.73
2019-06-07T18:30:44.220Z,12.55
2019-06-07T18:33:15.115Z,19.50
2019-06-07T18:35:47.042Z,11.83
2019-06-07T18:38:17.664Z,9.53
2019-06-07T18:40:49.126Z,8.53
2019-06-07T18:43:20.806Z,8.00
2019-06-07T18:45:53.307Z,8.73
2019-06-07T18:48:23.897Z,7.00
2019-06-07T18:50:54.718Z,7.27
2019-06-07T18:53:25.461Z,7.20
2019-06-07T18:55:56.246Z,8.27
2019-06-07T18:58:26.793Z,10.40
2019-06-07T19:00:57.682Z,8.93
2019-06-07T19:03:28.497Z,7.90
2019-06-07T19:06:00.225Z,7.37
2019-06-07T19:08:30.383Z,7.43
2019-06-07T19:11:01.261Z,6.77
2019-06-07T19:13:31.348Z,6.90
2019-06-07T19:16:01.873Z,9.23
2019-06-07T19:18:32.339Z,7.70
2019-06-07T19:21:03.298Z,7.30
2019-06-07T19:23:34.166Z,7.30
2019-06-07T19:26:04.865Z,7.50
2019-06-07T19:28:35.039Z,5.97
2019-06-07T19:31:05.847Z,7.20
2019-06-07T19:33:48.375Z,6.77
2019-06-07T19:36:08.704Z,6.15
2019-06-07T19:38:39.459Z,10.63
2019-06-07T19:41:19.147Z,8.67
2019-06-07T19:43:41.955Z,7.47
2019-06-07T19:46:12.374Z,7.23
2019-06-07T19:48:52.427Z,7.60
2019-06-07T19:51:21.284Z,7.03
2019-06-07T19:53:52.911Z,9.00
2019-06-07T19:56:23.860Z,6.37
2019-06-07T19:59:02.049Z,11.23
2019-06-07T20:01:32.648Z,8.40
2019-06-07T20:04:05.360Z,6.30
2019-06-07T20:06:37.647Z,7.33
2019-06-07T20:09:08.395Z,6.45
2019-06-07T20:11:49.844Z,9.28
2019-06-07T20:17:14.207Z,6.30
2019-06-07T20:19:45.514Z,7.50
2019-06-07T20:22:16.585Z,6.80
2019-06-07T20:24:47.211Z,6.83
2019-06-07T20:27:20.052Z,6.70
2019-06-07T20:29:51.160Z,6.43
2019-06-07T20:32:21.572Z,6.63
2019-06-07T20:34:51.999Z,6.50
2019-06-07T20:37:22.327Z,7.20
2019-06-07T20:39:53.376Z,11.27
2019-06-07T20:42:24.111Z,7.20
2019-06-07T20:44:54.713Z,6.70
2019-06-07T20:47:24.849Z,9.93
2019-06-07T20:49:55.917Z,11.73
2019-06-07T20:52:26.303Z,9.17
2019-06-07T20:54:58.444Z,11.90
2019-06-07T20:57:29.431Z,7.70
2019-06-07T21:00:02.445Z,5.37
2019-06-07T21:02:32.318Z,2.70
2019-06-07T21:05:05.189Z,6.63
2019-06-07T21:07:36.329Z,1.10
2019-06-07T21:10:08.317Z,3.00
2019-06-07T21:12:39.099Z,1.07
2019-06-07T21:15:12.713Z,2.10
2019-06-07T21:17:42.258Z,5.33
2019-06-07T21:20:14.531Z,7.80
2019-06-07T21:22:45.398Z,5.00
2019-06-07T21:25:16.714Z,3.27
2019-06-07T21:27:47.539Z,6.00
2019-06-07T21:30:18.515Z,7.63
2019-06-07T21:32:49.205Z,4.53
2019-06-07T21:35:19.636Z,2.47
2019-06-07T21:37:50.155Z,5.62
2019-06-07T21:40:20.688Z,7.78
2019-06-07T21:42:52.375Z,6.07
2019-06-07T21:45:23.247Z,5.93
2019-06-07T21:47:55.036Z,4.27
2019-06-07T21:50:27.197Z,4.83
2019-06-07T21:52:58.136Z,7.43
2019-06-07T21:55:28.633Z,3.17
2019-06-07T21:57:59.546Z,7.90
2019-06-07T22:01:19.072Z,5.93
2019-06-07T22:03:49.921Z,5.28
2019-06-07T22:06:20.375Z,3.37
2019-06-07T22:08:50.336Z,3.87
2019-06-07T22:11:21.940Z,2.97
2019-06-07T22:13:52.380Z,4.70
2019-06-07T22:16:28.915Z,4.33
2019-06-07T22:18:55.453Z,2.07
2019-06-07T22:21:26.171Z,5.80
2019-06-07T22:23:56.415Z,3.03
2019-06-07T22:26:27.095Z,1.50
2019-06-07T22:28:58.063Z,3.60
2019-06-07T22:31:30.950Z,1.10
2019-06-07T22:34:00.988Z,3.27
2019-06-07T22:36:32.176Z,2.53
2019-06-07T22:39:03.240Z,2.80
2019-06-07T22:41:34.961Z,1.57
2019-06-07T22:44:06.909Z,1.70
2019-06-07T22:46:38.735Z,1.90
2019-06-07T22:49:09.414Z,1.00
2019-06-07T22:51:40.219Z,5.90
2019-06-07T22:54:11.753Z,2.50
2019-06-07T22:56:49.050Z,3.20
2019-06-07T22:59:20.598Z,2.47
2019-06-07T23:01:51.602Z,5.53
2019-06-07T23:04:22.163Z,4.00
2019-06-07T23:06:53.098Z,5.33
2019-06-07T23:09:23.449Z,3.97
2019-06-07T23:11:54.285Z,4.87
2019-06-07T23:14:25.856Z,5.83
2019-06-07T23:16:56.651Z,2.90
2019-06-07T23:19:27.393Z,1.40
2019-06-07T23:21:58.591Z,4.53
2019-06-07T23:24:29.153Z,3.63
2019-06-07T23:27:00.550Z,3.83
2019-06-07T23:29:31.191Z,3.50
2019-06-07T23:32:02.265Z,6.10
2019-06-07T23:34:33.114Z,5.57
2019-06-07T23:37:03.735Z,4.30
2019-06-07T23:39:35.154Z,2.77
2019-06-07T23:42:05.484Z,9.57
2019-06-07T23:44:36.067Z,4.60
2019-06-07T23:47:11.454Z,3.27
2019-06-07T23:49:38.297Z,4.87
2019-06-07T23:52:09.338Z,4.13
2019-06-07T23:54:40.031Z,1.67
2019-06-07T23:57:10.366Z,2.10
2019-06-07T23:59:40.743Z,4.93
